createdAt,value
2018-07-08T00:01:26.876Z,81.30
2018-07-08T00:03:54.580Z,84.10
2018-07-08T00:06:21.480Z,83.40
2018-07-08T00:08:48.413Z,83.50
2018-07-08T00:11:15.306Z,84.30
2018-07-08T00:13:42.169Z,84.80
2018-07-08T00:16:09.164Z,84.90
2018-07-08T00:18:36.135Z,86.00
2018-07-08T00:21:03.108Z,85.90
2018-07-08T00:23:29.987Z,86.70
2018-07-08T00:25:56.958Z,87.10
2018-07-08T00:28:24.587Z,88.60
2018-07-08T00:30:51.562Z,88.60
2018-07-08T00:33:18.469Z,89.40
2018-07-08T00:35:45.397Z,89.70
2018-07-08T00:38:12.282Z,90.20
2018-07-08T00:40:39.271Z,90.50
2018-07-08T00:43:06.166Z,90.70
2018-07-08T00:45:33.157Z,91.20
2018-07-08T00:48:00.051Z,91.70
2018-07-08T00:50:27.149Z,91.70
2018-07-08T00:53:02.297Z,92.00
2018-07-08T00:55:43.206Z,92.30
2018-07-08T00:58:20.587Z,92.50
2018-07-08T01:00:57.137Z,93.30
2018-07-08T01:03:32.322Z,93.30
2018-07-08T01:06:12.275Z,93.50
2018-07-08T01:08:50.542Z,93.50
2018-07-08T01:11:21.839Z,93.90
2018-07-08T01:13:59.230Z,94.20
2018-07-08T01:16:26.677Z,94.50
2018-07-08T01:19:03.512Z,94.70
2018-07-08T01:21:31.047Z,94.80
2018-07-08T01:24:07.758Z,95.10
2018-07-08T01:26:45.558Z,95.00
2018-07-08T01:29:26.103Z,94.90
2018-07-08T01:31:53.977Z,94.80
2018-07-08T01:34:21.733Z,95.30
2018-07-08T01:36:49.457Z,95.40
2018-07-08T01:39:16.384Z,95.40
2018-07-08T01:41:43.293Z,95.70
2018-07-08T01:44:10.168Z,96.00
2018-07-08T01:46:37.129Z,95.90
2018-07-08T01:49:04.023Z,96.00
2018-07-08T01:51:31.681Z,96.10
2018-07-08T01:53:59.383Z,96.40
2018-07-08T01:56:26.324Z,96.40
2018-07-08T01:58:53.205Z,96.30
2018-07-08T02:01:20.125Z,96.10
2018-07-08T02:03:46.993Z,96.50
2018-07-08T02:06:14.024Z,96.40
2018-07-08T02:08:40.930Z,96.60
2018-07-08T02:11:07.886Z,96.80
2018-07-08T02:13:34.810Z,96.80
2018-07-08T02:16:02.549Z,97.00
2018-07-08T02:18:29.520Z,97.00
2018-07-08T02:20:57.180Z,97.20
2018-07-08T02:23:24.776Z,97.70
2018-07-08T02:25:51.715Z,97.40
2018-07-08T02:28:18.682Z,97.60
2018-07-08T02:30:45.592Z,97.70
2018-07-08T02:33:12.548Z,98.00
2018-07-08T02:35:39.511Z,98.10
2018-07-08T02:38:06.469Z,97.90
2018-07-08T02:40:33.445Z,98.30
2018-07-08T02:43:00.456Z,98.20
2018-07-08T02:45:27.383Z,98.50
2018-07-08T02:47:55.079Z,98.40
2018-07-08T02:50:22.018Z,98.60
2018-07-08T02:52:49.069Z,98.30
2018-07-08T02:55:15.910Z,98.20
2018-07-08T02:57:42.819Z,98.20
2018-07-08T03:00:09.681Z,98.20
2018-07-08T03:02:36.586Z,97.90
2018-07-08T03:05:03.525Z,97.90
2018-07-08T03:07:30.428Z,97.90
2018-07-08T03:09:57.278Z,97.80
2018-07-08T03:12:24.196Z,97.80
2018-07-08T03:14:51.064Z,97.90
2018-07-08T03:17:17.992Z,97.80
2018-07-08T03:19:44.891Z,97.70
2018-07-08T03:22:11.812Z,97.50
2018-07-08T03:24:38.670Z,97.50
2018-07-08T03:27:05.620Z,97.60
2018-07-08T03:29:32.529Z,97.60
2018-07-08T03:31:59.530Z,97.90
2018-07-08T03:34:27.173Z,97.60
2018-07-08T03:36:54.077Z,97.60
2018-07-08T03:39:20.946Z,97.70
2018-07-08T03:41:47.798Z,97.70
2018-07-08T03:44:14.733Z,97.60
2018-07-08T03:46:41.575Z,97.60
2018-07-08T03:49:08.862Z,97.80
2018-07-08T03:51:35.736Z,97.70
2018-07-08T03:54:03.509Z,97.90
2018-07-08T03:56:30.376Z,97.70
2018-07-08T03:58:57.308Z,97.70
2018-07-08T04:01:24.214Z,97.80
2018-07-08T04:03:51.126Z,97.80
2018-07-08T04:06:17.983Z,97.80
2018-07-08T04:08:44.899Z,97.80
2018-07-08T04:11:11.822Z,97.90
2018-07-08T04:13:38.791Z,98.00
2018-07-08T04:16:05.680Z,98.00
2018-07-08T04:18:32.636Z,98.10
2018-07-08T04:20:59.493Z,98.20
2018-07-08T04:23:27.145Z,98.30
2018-07-08T04:25:55.581Z,98.30
2018-07-08T04:28:30.755Z,98.30
2018-07-08T04:30:58.067Z,98.10
2018-07-08T04:33:24.992Z,98.10
2018-07-08T04:35:51.890Z,97.80
2018-07-08T04:38:18.797Z,97.60
2018-07-08T04:40:45.680Z,96.60
2018-07-08T04:43:12.585Z,95.20
2018-07-08T04:45:39.435Z,94.70
2018-07-08T04:49:36.176Z,94.40
2018-07-08T04:52:03.144Z,92.30
2018-07-08T04:54:30.049Z,90.10
2018-07-08T04:56:56.916Z,88.60
2018-07-08T04:59:23.833Z,87.60
2018-07-08T05:01:51.421Z,77.40
2018-07-08T05:04:18.343Z,77.30
2018-07-08T05:06:45.997Z,71.30
2018-07-08T05:09:13.676Z,69.30
2018-07-08T05:11:40.544Z,69.40
2018-07-08T05:14:07.464Z,66.10
2018-07-08T05:16:35.048Z,62.80
2018-07-08T05:19:02.042Z,62.70
2018-07-08T05:21:28.885Z,59.20
2018-07-08T05:23:55.810Z,55.40
2018-07-08T05:26:22.648Z,54.80
2018-07-08T05:28:49.652Z,53.90
2018-07-08T05:31:17.245Z,52.30
2018-07-08T05:33:44.157Z,52.30
2018-07-08T05:36:11.795Z,56.90
2018-07-08T05:38:38.741Z,56.80
2018-07-08T05:41:05.637Z,57.90
2018-07-08T05:43:32.567Z,58.60
2018-07-08T05:45:59.418Z,59.80
2018-07-08T05:48:26.380Z,63.00
2018-07-08T05:50:53.231Z,65.10
2018-07-08T05:53:20.131Z,67.90
2018-07-08T05:55:47.717Z,72.70
2018-07-08T05:58:14.696Z,72.60
2018-07-08T06:00:41.548Z,72.50
2018-07-08T06:03:08.397Z,69.10
2018-07-08T06:05:35.317Z,68.10
2018-07-08T06:08:02.190Z,68.80
2018-07-08T06:10:29.229Z,67.10
2018-07-08T06:12:56.076Z,68.50
2018-07-08T06:15:23.039Z,70.90
2018-07-08T06:17:50.648Z,73.60
2018-07-08T06:20:17.576Z,72.80
2018-07-08T06:22:44.460Z,74.10
2018-07-08T06:25:11.393Z,75.40
2018-07-08T06:27:38.286Z,77.00
2018-07-08T06:30:05.301Z,78.20
2018-07-08T06:32:32.176Z,79.10
2018-07-08T06:34:59.840Z,80.90
2018-07-08T06:37:27.451Z,80.90
2018-07-08T06:39:54.354Z,80.90
2018-07-08T06:42:21.952Z,81.30
2018-07-08T06:44:48.873Z,81.40
2018-07-08T06:47:16.480Z,81.00
2018-07-08T06:49:43.404Z,81.00
2018-07-08T06:52:10.248Z,82.10
2018-07-08T06:54:37.165Z,82.40
2018-07-08T06:57:04.841Z,82.50
2018-07-08T06:59:31.847Z,82.50
2018-07-08T07:01:58.707Z,81.90
2018-07-08T07:04:25.720Z,81.80
2018-07-08T07:06:52.590Z,81.90
2018-07-08T07:09:19.505Z,81.60
2018-07-08T07:11:46.352Z,81.10
2018-07-08T07:14:13.282Z,82.00
2018-07-08T07:16:40.200Z,82.50
2018-07-08T07:19:07.802Z,80.70
2018-07-08T07:21:34.760Z,80.70
2018-07-08T07:24:01.652Z,81.90
2018-07-08T07:26:29.306Z,81.80
2018-07-08T07:28:56.931Z,82.20
2018-07-08T07:31:23.852Z,82.30
2018-07-08T07:33:50.767Z,82.20
2018-07-08T07:36:18.410Z,81.10
2018-07-08T07:38:45.316Z,81.10
2018-07-08T07:41:12.233Z,81.50
2018-07-08T07:43:39.092Z,80.90
2018-07-08T07:46:06.053Z,81.60
2018-07-08T07:48:32.896Z,81.60
2018-07-08T07:50:59.824Z,81.00
2018-07-08T07:53:26.674Z,81.30
2018-07-08T07:55:53.596Z,79.00
2018-07-08T07:58:21.272Z,71.30
2018-07-08T08:00:48.200Z,71.20
2018-07-08T08:03:15.826Z,71.80
2018-07-08T08:05:42.734Z,71.80
2018-07-08T08:08:09.619Z,74.50
2018-07-08T08:10:36.549Z,72.10
2018-07-08T08:13:03.443Z,72.20
2018-07-08T08:15:30.393Z,72.80
2018-07-08T08:17:57.274Z,69.90
2018-07-08T08:20:24.217Z,72.70
2018-07-08T08:22:51.073Z,73.20
2018-07-08T08:25:18.014Z,68.60
2018-07-08T08:27:44.904Z,67.90
2018-07-08T08:30:12.626Z,64.70
2018-07-08T08:32:39.552Z,64.60
2018-07-08T08:35:06.425Z,60.80
2018-07-08T08:37:33.402Z,60.20
2018-07-08T08:40:00.324Z,60.50
2018-07-08T08:42:27.318Z,60.30
2018-07-08T08:44:54.200Z,59.30
2018-07-08T08:47:21.194Z,56.60
2018-07-08T08:49:48.084Z,56.00
2018-07-08T08:52:15.031Z,52.50
2018-07-08T08:54:41.905Z,53.10
2018-07-08T08:57:08.812Z,53.60
2018-07-08T08:59:35.748Z,53.60
2018-07-08T09:02:02.733Z,52.00
2018-07-08T09:04:29.595Z,49.50
2018-07-08T09:06:56.530Z,48.30
2018-07-08T09:09:23.437Z,50.80
2018-07-08T09:11:50.357Z,50.30
2018-07-08T09:14:17.980Z,52.90
2018-07-08T09:16:44.921Z,52.90
2018-07-08T09:19:11.812Z,51.60
2018-07-08T09:21:39.483Z,50.60
2018-07-08T09:24:06.496Z,50.20
2018-07-08T09:26:33.433Z,51.90
2018-07-08T09:29:00.299Z,51.20
2018-07-08T09:31:27.222Z,50.10
2018-07-08T09:33:54.102Z,51.30
2018-07-08T09:36:21.012Z,49.80
2018-07-08T09:38:47.952Z,49.40
2018-07-08T09:41:14.838Z,50.50
2018-07-08T09:43:42.424Z,49.10
2018-07-08T09:46:09.337Z,49.10
2018-07-08T09:48:36.946Z,50.50
2018-07-08T09:51:03.869Z,50.40
2018-07-08T09:53:30.725Z,50.60
2018-07-08T09:55:57.597Z,49.80
2018-07-08T09:58:24.592Z,48.90
2018-07-08T10:00:52.179Z,49.20
2018-07-08T10:03:19.128Z,49.20
2018-07-08T10:05:46.017Z,48.10
2018-07-08T10:08:12.996Z,48.40
2018-07-08T10:10:39.857Z,48.20
2018-07-08T10:13:06.817Z,47.40
2018-07-08T10:15:33.693Z,48.00
2018-07-08T10:18:00.626Z,47.60
2018-07-08T10:20:27.577Z,46.40
2018-07-08T10:22:54.492Z,46.70
2018-07-08T10:25:21.388Z,46.70
2018-07-08T10:27:48.870Z,47.10
2018-07-08T10:30:29.422Z,44.90
2018-07-08T10:33:11.160Z,44.60
2018-07-08T10:35:57.573Z,44.00
2018-07-08T10:38:39.932Z,42.30
2018-07-08T10:41:20.802Z,40.80
2018-07-08T10:43:48.668Z,41.60
2018-07-08T10:46:16.280Z,38.40
2018-07-08T10:48:43.208Z,38.40
2018-07-08T10:51:10.111Z,40.90
2018-07-08T10:53:37.049Z,40.00
2018-07-08T10:56:04.025Z,39.30
2018-07-08T10:58:31.756Z,39.00
2018-07-08T11:00:58.693Z,38.80
2018-07-08T11:03:25.663Z,36.60
2018-07-08T11:05:53.362Z,40.00
2018-07-08T11:08:20.320Z,39.90
2018-07-08T11:10:51.342Z,36.50
2018-07-08T11:13:20.611Z,36.30
2018-07-08T11:15:47.493Z,35.70
2018-07-08T11:18:15.416Z,35.90
2018-07-08T11:20:42.334Z,36.80
2018-07-08T11:23:13.057Z,35.70
2018-07-08T11:25:41.996Z,35.20
2018-07-08T11:28:08.997Z,34.20
2018-07-08T11:30:35.862Z,35.80
2018-07-08T11:33:02.832Z,36.00
2018-07-08T11:35:29.737Z,34.70
2018-07-08T11:37:56.651Z,34.60
2018-07-08T11:40:37.490Z,35.00
2018-07-08T11:43:09.900Z,35.10
2018-07-08T11:45:37.486Z,33.30
2018-07-08T11:48:16.836Z,33.40
2018-07-08T11:50:48.124Z,34.20
2018-07-08T11:53:21.030Z,35.90
2018-07-08T11:55:48.612Z,34.10
2018-07-08T11:58:15.584Z,34.10
2018-07-08T12:00:42.501Z,34.50
2018-07-08T12:03:09.424Z,34.90
2018-07-08T12:05:37.118Z,34.70
2018-07-08T12:08:07.079Z,34.60
2018-07-08T12:10:48.689Z,33.50
2018-07-08T12:13:31.507Z,32.50
2018-07-08T12:16:12.428Z,32.50
2018-07-08T12:18:54.240Z,34.90
2018-07-08T12:21:34.863Z,34.60
2018-07-08T12:24:03.532Z,33.70
2018-07-08T12:26:31.152Z,34.70
2018-07-08T12:28:58.068Z,34.60
2018-07-08T12:31:24.924Z,36.10
2018-07-08T12:33:51.839Z,34.80
2018-07-08T12:36:19.462Z,34.40
2018-07-08T12:38:46.382Z,34.30
2018-07-08T12:41:13.249Z,34.40
2018-07-08T12:43:40.234Z,34.10
2018-07-08T12:46:07.857Z,35.70
2018-07-08T12:48:34.858Z,35.70
2018-07-08T12:51:01.748Z,34.60
2018-07-08T12:53:28.723Z,34.10
2018-07-08T12:55:55.630Z,35.60
2018-07-08T12:58:22.653Z,35.20
2018-07-08T13:00:49.554Z,35.70
2018-07-08T13:03:16.425Z,35.40
2018-07-08T13:05:43.349Z,34.80
2018-07-08T13:08:10.291Z,36.30
2018-07-08T13:10:38.032Z,33.40
2018-07-08T13:13:04.942Z,33.40
2018-07-08T13:15:31.866Z,34.20
2018-07-08T13:17:58.763Z,33.00
2018-07-08T13:20:25.721Z,32.70
2018-07-08T13:22:52.577Z,33.50
2018-07-08T13:25:19.501Z,36.40
2018-07-08T13:27:46.397Z,37.10
2018-07-08T13:30:14.060Z,35.70
2018-07-08T13:32:40.965Z,35.60
2018-07-08T13:35:07.991Z,36.30
2018-07-08T13:37:34.849Z,34.90
2018-07-08T13:40:01.774Z,36.00
2018-07-08T13:42:28.636Z,35.60
2018-07-08T13:44:55.564Z,37.60
2018-07-08T13:47:22.464Z,37.00
2018-07-08T13:49:50.133Z,38.20
2018-07-08T13:52:17.009Z,38.20
2018-07-08T13:54:43.938Z,38.30
2018-07-08T13:57:10.796Z,37.80
2018-07-08T13:59:37.766Z,37.30
2018-07-08T14:02:04.664Z,35.00
2018-07-08T14:04:32.352Z,35.90
2018-07-08T14:06:59.237Z,35.90
2018-07-08T14:09:26.229Z,37.00
2018-07-08T14:11:53.141Z,37.00
2018-07-08T14:14:20.108Z,37.10
2018-07-08T14:16:46.985Z,37.00
2018-07-08T14:19:13.849Z,36.00
2018-07-08T14:21:40.801Z,36.70
2018-07-08T14:24:07.722Z,37.90
2018-07-08T14:26:34.701Z,38.50
2018-07-08T14:29:01.581Z,38.70
2018-07-08T14:31:29.234Z,36.80
2018-07-08T14:33:56.844Z,36.60
2018-07-08T14:36:23.752Z,37.00
2018-07-08T14:38:50.620Z,36.00
2018-07-08T14:41:17.533Z,37.00
2018-07-08T14:43:45.136Z,37.10
2018-07-08T14:46:12.086Z,37.10
2018-07-08T14:48:38.957Z,36.30
2018-07-08T14:51:05.946Z,37.50
2018-07-08T14:53:32.812Z,38.40
2018-07-08T14:55:59.741Z,37.40
2018-07-08T14:58:26.690Z,37.70
2018-07-08T15:00:53.785Z,37.30
2018-07-08T15:03:20.657Z,38.90
2018-07-08T15:05:47.624Z,37.20
2018-07-08T15:08:14.602Z,38.10
2018-07-08T15:10:41.505Z,37.50
2018-07-08T15:13:09.108Z,37.90
2018-07-08T15:15:36.088Z,37.80
2018-07-08T15:18:03.810Z,37.00
2018-07-08T15:20:30.731Z,37.00
2018-07-08T15:22:58.332Z,39.30
2018-07-08T15:25:25.256Z,39.30
2018-07-08T15:27:52.122Z,37.20
2018-07-08T15:30:19.067Z,37.90
2018-07-08T15:32:46.008Z,38.90
2018-07-08T15:35:12.965Z,37.80
2018-07-08T15:37:39.860Z,38.40
2018-07-08T15:40:07.505Z,37.20
2018-07-08T15:42:34.498Z,37.10
2018-07-08T15:45:01.444Z,37.50
2018-07-08T15:47:28.420Z,38.10
2018-07-08T15:49:55.368Z,37.50
2018-07-08T15:52:22.380Z,37.30
2018-07-08T15:54:49.237Z,38.00
2018-07-08T15:57:16.293Z,38.10
2018-07-08T15:59:43.317Z,38.90
2018-07-08T16:02:10.301Z,37.70
2018-07-08T16:04:37.203Z,38.50
2018-07-08T16:07:14.847Z,38.20
2018-07-08T16:09:51.500Z,40.40
2018-07-08T16:12:18.460Z,39.60
2018-07-08T16:14:45.365Z,39.40
2018-07-08T16:17:15.570Z,39.20
2018-07-08T16:19:47.386Z,39.10
2018-07-08T16:22:14.344Z,39.20
2018-07-08T16:24:41.317Z,38.40
2018-07-08T16:27:08.993Z,39.60
2018-07-08T16:29:36.670Z,38.50
2018-07-08T16:32:03.671Z,38.40
2018-07-08T16:34:30.631Z,39.40
2018-07-08T16:36:57.557Z,38.80
2018-07-08T16:39:24.445Z,38.90
2018-07-08T16:41:51.412Z,39.30
2018-07-08T16:44:18.268Z,39.10
2018-07-08T16:46:45.288Z,39.40
2018-07-08T16:49:12.152Z,39.30
2018-07-08T16:51:39.070Z,39.90
2018-07-08T16:54:06.712Z,39.40
2018-07-08T16:56:33.615Z,39.40
2018-07-08T16:59:00.521Z,39.80
2018-07-08T17:01:28.362Z,40.70
2018-07-08T17:03:55.219Z,40.80
2018-07-08T17:06:22.134Z,39.10
2018-07-08T17:08:49.072Z,39.70
2018-07-08T17:11:15.934Z,39.90
2018-07-08T17:13:42.853Z,40.00
2018-07-08T17:16:09.732Z,39.40
2018-07-08T17:18:36.649Z,39.70
2018-07-08T17:21:03.502Z,39.60
2018-07-08T17:23:30.509Z,39.80
2018-07-08T17:25:58.121Z,40.00
2018-07-08T17:28:25.116Z,40.00
2018-07-08T17:30:51.989Z,39.10
2018-07-08T17:33:19.061Z,39.80
2018-07-08T17:35:45.887Z,40.10
2018-07-08T17:38:12.891Z,39.80
2018-07-08T17:40:40.513Z,40.20
2018-07-08T17:43:07.429Z,40.20
2018-07-08T17:45:34.312Z,40.50
2018-07-08T17:48:01.300Z,40.50
2018-07-08T17:50:28.185Z,39.90
2018-07-08T17:52:55.214Z,39.50
2018-07-08T17:55:22.120Z,39.80
2018-07-08T17:57:49.882Z,40.60
2018-07-08T18:00:17.562Z,41.50
2018-07-08T18:02:45.292Z,41.40
2018-07-08T18:05:12.141Z,41.40
2018-07-08T18:07:39.041Z,41.40
2018-07-08T18:10:05.905Z,41.10
2018-07-08T18:12:32.866Z,41.40
2018-07-08T18:14:59.740Z,42.20
2018-07-08T18:17:27.463Z,41.50
2018-07-08T18:19:54.421Z,41.50
2018-07-08T18:22:21.348Z,41.80
2018-07-08T18:24:48.268Z,42.70
2018-07-08T18:27:15.253Z,43.10
2018-07-08T18:29:42.115Z,43.00
2018-07-08T18:32:08.976Z,42.70
2018-07-08T18:34:35.892Z,43.00
2018-07-08T18:37:02.802Z,43.20
2018-07-08T18:39:29.752Z,43.20
2018-07-08T18:41:56.659Z,43.70
2018-07-08T18:44:24.408Z,44.30
2018-07-08T18:46:51.272Z,44.30
2018-07-08T18:49:19.628Z,44.80
2018-07-08T18:51:46.500Z,44.70
2018-07-08T18:54:14.198Z,45.30
2018-07-08T18:56:41.152Z,45.30
2018-07-08T18:59:08.124Z,45.30
2018-07-08T19:01:35.080Z,45.70
2018-07-08T19:04:02.004Z,46.10
2018-07-08T19:06:28.888Z,46.20
2018-07-08T19:08:55.815Z,46.50
2018-07-08T19:11:22.683Z,47.10
2018-07-08T19:13:49.687Z,47.00
2018-07-08T19:16:16.674Z,47.60
2018-07-08T19:18:44.355Z,48.10
2018-07-08T19:21:11.217Z,48.00
2018-07-08T19:23:38.218Z,48.30
2018-07-08T19:26:05.856Z,48.90
2018-07-08T19:28:32.837Z,48.90
2018-07-08T19:31:00.458Z,49.40
2018-07-08T19:33:27.395Z,49.40
2018-07-08T19:35:54.321Z,49.70
2018-07-08T19:38:21.217Z,49.90
2018-07-08T19:40:48.132Z,50.00
2018-07-08T19:43:15.096Z,50.40
2018-07-08T19:45:42.005Z,50.40
2018-07-08T19:48:08.875Z,50.30
2018-07-08T19:50:35.814Z,50.60
2018-07-08T19:53:02.712Z,50.80
2018-07-08T19:55:30.419Z,51.00
2018-07-08T19:57:57.306Z,51.00
2018-07-08T20:00:24.316Z,51.00
2018-07-08T20:02:51.173Z,51.60
2018-07-08T20:05:18.111Z,51.60
2018-07-08T20:07:45.128Z,51.70
2018-07-08T20:10:12.767Z,52.10
2018-07-08T20:12:40.425Z,52.10
2018-07-08T20:15:08.105Z,52.60
2018-07-08T20:17:35.038Z,52.50
2018-07-08T20:20:01.977Z,52.60
2018-07-08T20:22:29.630Z,52.90
2018-07-08T20:24:56.561Z,52.90
2018-07-08T20:27:23.533Z,53.00
2018-07-08T20:29:51.284Z,53.50
2018-07-08T20:32:18.153Z,53.50
2018-07-08T20:34:45.176Z,53.70
2018-07-08T20:37:12.044Z,54.00
2018-07-08T20:39:39.024Z,54.20
2018-07-08T20:42:05.938Z,54.30
2018-07-08T20:44:33.676Z,54.70
2018-07-08T20:47:00.618Z,54.60
2018-07-08T20:49:27.520Z,54.80
2018-07-08T20:51:54.448Z,54.80
2018-07-08T20:54:21.443Z,54.80
2018-07-08T20:56:48.468Z,55.10
2018-07-08T20:59:15.457Z,55.00
2018-07-08T21:01:42.429Z,55.20
2018-07-08T21:04:09.425Z,55.20
2018-07-08T21:06:36.411Z,55.20
2018-07-08T21:09:04.048Z,55.50
2018-07-08T21:11:31.030Z,55.30
2018-07-08T21:13:58.665Z,55.40
2018-07-08T21:16:25.585Z,55.30
2018-07-08T21:18:52.558Z,55.60
2018-07-08T21:21:19.531Z,55.60
2018-07-08T21:23:47.213Z,55.50
2018-07-08T21:26:14.173Z,55.50
2018-07-08T21:28:41.075Z,55.70
2018-07-08T21:31:08.746Z,56.00
2018-07-08T21:33:36.432Z,55.90
2018-07-08T21:36:03.393Z,55.80
2018-07-08T21:38:30.286Z,55.90
2018-07-08T21:40:57.294Z,56.20
2018-07-08T21:43:24.133Z,56.10
2018-07-08T21:45:51.065Z,56.30
2018-07-08T21:48:17.927Z,56.30
2018-07-08T21:50:44.897Z,56.50
2018-07-08T21:53:11.782Z,56.80
2018-07-08T21:55:39.536Z,56.80
2018-07-08T21:58:07.208Z,56.90
2018-07-08T22:00:35.007Z,57.40
2018-07-08T22:03:01.907Z,57.40
2018-07-08T22:05:28.885Z,57.40
2018-07-08T22:07:55.907Z,57.30
2018-07-08T22:10:23.657Z,57.40
2018-07-08T22:12:51.299Z,57.60
2018-07-08T22:15:24.339Z,57.50
2018-07-08T22:17:51.937Z,58.10
2018-07-08T22:20:18.849Z,57.60
2018-07-08T22:22:45.760Z,57.70
2018-07-08T22:25:26.814Z,57.80
2018-07-08T22:28:07.653Z,57.90
2018-07-08T22:30:47.419Z,58.20
2018-07-08T22:33:29.451Z,58.20
2018-07-08T22:36:11.334Z,58.30
2018-07-08T22:38:52.422Z,58.30
2018-07-08T22:41:33.045Z,58.40
2018-07-08T22:44:07.351Z,58.40
2018-07-08T22:46:49.367Z,58.30
2018-07-08T22:49:32.398Z,58.50
2018-07-08T22:52:14.208Z,58.50
2018-07-08T22:54:55.529Z,58.80
2018-07-08T22:57:23.295Z,58.70
2018-07-08T22:59:59.339Z,58.50
2018-07-08T23:02:50.900Z,58.50
2018-07-08T23:05:18.742Z,59.00
2018-07-08T23:07:45.687Z,58.80
2018-07-08T23:10:13.516Z,58.80
2018-07-08T23:12:40.440Z,59.30
2018-07-08T23:15:07.359Z,58.80
2018-07-08T23:17:35.040Z,58.70
2018-07-08T23:20:01.937Z,58.70
2018-07-08T23:22:29.001Z,58.80
2018-07-08T23:24:56.656Z,58.90
2018-07-08T23:27:23.595Z,58.90
2018-07-08T23:29:50.473Z,58.70
2018-07-08T23:32:18.174Z,58.80
2018-07-08T23:34:45.045Z,58.80
2018-07-08T23:37:11.976Z,58.70
2018-07-08T23:39:38.853Z,58.80
2018-07-08T23:42:06.588Z,58.50
2018-07-08T23:44:33.578Z,58.50
2018-07-08T23:47:00.509Z,58.80
2018-07-08T23:49:28.105Z,59.00
2018-07-08T23:51:55.037Z,59.00
2018-07-08T23:54:21.930Z,58.90
2018-07-08T23:56:48.802Z,59.00
2018-07-08T23:59:15.798Z,59.10
